sensor_id;sensor_type;location;lat;lon;timestamp;P1;durP1;ratioP1;P2;durP2;ratioP2
9836;SDS011;4957;51.412;6.724;2023-04-25T00:00:26;13.27;;;4.27;;
9836;SDS011;4957;51.412;6.724;2023-04-25T00:02:51;10.17;;;3.37;;
9836;SDS011;4957;51.412;6.724;2023-04-25T00:05:17;12.10;;;4.53;;
9836;SDS011;4957;51.412;6.724;2023-04-25T00:07:44;9.53;;;4.40;;
9836;SDS011;4957;51.412;6.724;2023-04-25T00:10:11;9.90;;;4.17;;
9836;SDS011;4957;51.412;6.724;2023-04-25T00:12:36;12.97;;;4.30;;
9836;SDS011;4957;51.412;6.724;2023-04-25T00:15:03;11.87;;;3.97;;
9836;SDS011;4957;51.412;6.724;2023-04-25T00:17:28;11.93;;;3.70;;
9836;SDS011;4957;51.412;6.724;2023-04-25T00:19:54;11.20;;;4.40;;
9836;SDS011;4957;51.412;6.724;2023-04-25T00:22:20;11.80;;;4.40;;
9836;SDS011;4957;51.412;6.724;2023-04-25T00:24:46;13.37;;;4.07;;
9836;SDS011;4957;51.412;6.724;2023-04-25T00:27:12;9.37;;;4.50;;
9836;SDS011;4957;51.412;6.724;2023-04-25T00:29:38;10.20;;;4.03;;
9836;SDS011;4957;51.412;6.724;2023-04-25T00:32:03;14.40;;;4.57;;
9836;SDS011;4957;51.412;6.724;2023-04-25T00:34:29;12.53;;;4.43;;
9836;SDS011;4957;51.412;6.724;2023-04-25T00:36:55;8.47;;;3.80;;
9836;SDS011;4957;51.412;6.724;2023-04-25T00:39:21;12.40;;;3.87;;
9836;SDS011;4957;51.412;6.724;2023-04-25T00:41:47;10.63;;;4.53;;
9836;SDS011;4957;51.412;6.724;2023-04-25T00:44:13;10.33;;;3.87;;
9836;SDS011;4957;51.412;6.724;2023-04-25T00:46:42;14.83;;;4.20;;
9836;SDS011;4957;51.412;6.724;2023-04-25T00:49:07;10.87;;;4.10;;
9836;SDS011;4957;51.412;6.724;2023-04-25T00:51:33;8.47;;;3.90;;
9836;SDS011;4957;51.412;6.724;2023-04-25T00:54:00;13.00;;;4.10;;
9836;SDS011;4957;51.412;6.724;2023-04-25T00:56:26;9.13;;;3.63;;
9836;SDS011;4957;51.412;6.724;2023-04-25T00:58:53;11.90;;;4.30;;
9836;SDS011;4957;51.412;6.724;2023-04-25T01:01:21;13.00;;;4.37;;
9836;SDS011;4957;51.412;6.724;2023-04-25T01:03:47;10.07;;;3.90;;
9836;SDS011;4957;51.412;6.724;2023-04-25T01:06:15;12.07;;;3.67;;
9836;SDS011;4957;51.412;6.724;2023-04-25T01:08:41;16.60;;;4.37;;
9836;SDS011;4957;51.412;6.724;2023-04-25T01:11:07;9.10;;;3.83;;
9836;SDS011;4957;51.412;6.724;2023-04-25T01:13:33;10.83;;;3.67;;
9836;SDS011;4957;51.412;6.724;2023-04-25T01:15:59;12.43;;;3.83;;
9836;SDS011;4957;51.412;6.724;2023-04-25T01:18:26;13.50;;;3.70;;
9836;SDS011;4957;51.412;6.724;2023-04-25T01:20:52;13.07;;;3.90;;
9836;SDS011;4957;51.412;6.724;2023-04-25T01:23:19;7.33;;;3.80;;
9836;SDS011;4957;51.412;6.724;2023-04-25T01:25:46;7.40;;;4.03;;
9836;SDS011;4957;51.412;6.724;2023-04-25T01:28:13;7.30;;;3.80;;
9836;SDS011;4957;51.412;6.724;2023-04-25T01:30:39;10.43;;;4.30;;
9836;SDS011;4957;51.412;6.724;2023-04-25T01:33:05;12.13;;;4.10;;
9836;SDS011;4957;51.412;6.724;2023-04-25T01:35:33;9.40;;;4.00;;
9836;SDS011;4957;51.412;6.724;2023-04-25T01:37:59;6.70;;;3.73;;
9836;SDS011;4957;51.412;6.724;2023-04-25T01:40:24;12.50;;;4.27;;
9836;SDS011;4957;51.412;6.724;2023-04-25T01:42:51;12.13;;;3.87;;
9836;SDS011;4957;51.412;6.724;2023-04-25T01:45:17;6.27;;;3.23;;
9836;SDS011;4957;51.412;6.724;2023-04-25T01:47:43;8.57;;;3.27;;
9836;SDS011;4957;51.412;6.724;2023-04-25T01:50:13;8.97;;;3.50;;
9836;SDS011;4957;51.412;6.724;2023-04-25T01:52:40;10.13;;;4.13;;
9836;SDS011;4957;51.412;6.724;2023-04-25T01:55:06;12.90;;;4.37;;
9836;SDS011;4957;51.412;6.724;2023-04-25T01:57:32;10.17;;;3.67;;
9836;SDS011;4957;51.412;6.724;2023-04-25T01:59:58;11.17;;;4.33;;
9836;SDS011;4957;51.412;6.724;2023-04-25T02:02:25;5.90;;;3.27;;
9836;SDS011;4957;51.412;6.724;2023-04-25T02:04:51;5.93;;;2.47;;
9836;SDS011;4957;51.412;6.724;2023-04-25T02:07:17;5.90;;;3.53;;
9836;SDS011;4957;51.412;6.724;2023-04-25T02:09:43;7.43;;;3.63;;
9836;SDS011;4957;51.412;6.724;2023-04-25T02:12:09;9.13;;;3.80;;
9836;SDS011;4957;51.412;6.724;2023-04-25T02:14:35;9.27;;;3.70;;
9836;SDS011;4957;51.412;6.724;2023-04-25T02:17:01;4.03;;;2.90;;
9836;SDS011;4957;51.412;6.724;2023-04-25T02:19:27;8.43;;;3.20;;
9836;SDS011;4957;51.412;6.724;2023-04-25T02:21:53;7.00;;;3.43;;
9836;SDS011;4957;51.412;6.724;2023-04-25T02:24:19;14.70;;;4.00;;
9836;SDS011;4957;51.412;6.724;2023-04-25T02:26:45;10.10;;;3.97;;
9836;SDS011;4957;51.412;6.724;2023-04-25T02:29:12;10.53;;;4.10;;
9836;SDS011;4957;51.412;6.724;2023-04-25T02:31:37;11.73;;;3.23;;
9836;SDS011;4957;51.412;6.724;2023-04-25T02:34:03;7.83;;;3.80;;
9836;SDS011;4957;51.412;6.724;2023-04-25T02:36:29;11.00;;;3.83;;
9836;SDS011;4957;51.412;6.724;2023-04-25T02:38:59;10.40;;;3.50;;
9836;SDS011;4957;51.412;6.724;2023-04-25T02:41:25;13.53;;;3.33;;
9836;SDS011;4957;51.412;6.724;2023-04-25T02:43:51;7.40;;;3.30;;
9836;SDS011;4957;51.412;6.724;2023-04-25T02:46:17;6.27;;;3.20;;
9836;SDS011;4957;51.412;6.724;2023-04-25T02:48:42;11.87;;;3.63;;
9836;SDS011;4957;51.412;6.724;2023-04-25T02:51:08;9.97;;;3.63;;
9836;SDS011;4957;51.412;6.724;2023-04-25T02:53:34;7.27;;;3.37;;
9836;SDS011;4957;51.412;6.724;2023-04-25T02:56:00;11.33;;;3.80;;
9836;SDS011;4957;51.412;6.724;2023-04-25T02:58:26;11.83;;;3.33;;
9836;SDS011;4957;51.412;6.724;2023-04-25T03:00:52;6.47;;;2.97;;
9836;SDS011;4957;51.412;6.724;2023-04-25T03:03:18;12.80;;;3.87;;
9836;SDS011;4957;51.412;6.724;2023-04-25T03:05:46;8.23;;;3.70;;
9836;SDS011;4957;51.412;6.724;2023-04-25T03:08:15;10.03;;;3.20;;
9836;SDS011;4957;51.412;6.724;2023-04-25T03:10:41;4.90;;;2.43;;
9836;SDS011;4957;51.412;6.724;2023-04-25T03:13:08;10.47;;;3.50;;
9836;SDS011;4957;51.412;6.724;2023-04-25T03:15:34;10.10;;;3.90;;
9836;SDS011;4957;51.412;6.724;2023-04-25T03:18:00;13.00;;;3.80;;
9836;SDS011;4957;51.412;6.724;2023-04-25T03:20:26;8.10;;;3.13;;
9836;SDS011;4957;51.412;6.724;2023-04-25T03:22:52;8.67;;;3.67;;
9836;SDS011;4957;51.412;6.724;2023-04-25T03:25:17;6.77;;;2.97;;
9836;SDS011;4957;51.412;6.724;2023-04-25T03:27:43;12.63;;;3.17;;
9836;SDS011;4957;51.412;6.724;2023-04-25T03:30:09;7.83;;;3.70;;
9836;SDS011;4957;51.412;6.724;2023-04-25T03:32:35;9.93;;;3.37;;
9836;SDS011;4957;51.412;6.724;2023-04-25T03:35:00;8.23;;;3.23;;
9836;SDS011;4957;51.412;6.724;2023-04-25T03:37:26;8.83;;;3.53;;
9836;SDS011;4957;51.412;6.724;2023-04-25T03:39:52;12.10;;;3.47;;
9836;SDS011;4957;51.412;6.724;2023-04-25T03:42:17;13.50;;;3.33;;
9836;SDS011;4957;51.412;6.724;2023-04-25T03:44:43;12.30;;;3.07;;
9836;SDS011;4957;51.412;6.724;2023-04-25T03:47:09;7.47;;;3.63;;
9836;SDS011;4957;51.412;6.724;2023-04-25T03:49:35;13.47;;;3.53;;
9836;SDS011;4957;51.412;6.724;2023-04-25T03:52:01;6.70;;;3.10;;
9836;SDS011;4957;51.412;6.724;2023-04-25T03:54:27;7.97;;;3.50;;
9836;SDS011;4957;51.412;6.724;2023-04-25T03:56:53;8.90;;;3.40;;
9836;SDS011;4957;51.412;6.724;2023-04-25T03:59:18;17.50;;;4.63;;
9836;SDS011;4957;51.412;6.724;2023-04-25T04:01:44;6.93;;;3.23;;
9836;SDS011;4957;51.412;6.724;2023-04-25T04:04:09;9.70;;;4.00;;
9836;SDS011;4957;51.412;6.724;2023-04-25T04:06:35;10.43;;;3.40;;
9836;SDS011;4957;51.412;6.724;2023-04-25T04:09:01;9.97;;;3.50;;
9836;SDS011;4957;51.412;6.724;2023-04-25T04:11:28;14.73;;;4.13;;
9836;SDS011;4957;51.412;6.724;2023-04-25T04:13:54;9.40;;;3.70;;
9836;SDS011;4957;51.412;6.724;2023-04-25T04:16:19;9.17;;;3.63;;
9836;SDS011;4957;51.412;6.724;2023-04-25T04:18:45;14.30;;;4.07;;
9836;SDS011;4957;51.412;6.724;2023-04-25T04:21:11;11.23;;;4.20;;
9836;SDS011;4957;51.412;6.724;2023-04-25T04:23:37;9.30;;;3.53;;
9836;SDS011;4957;51.412;6.724;2023-04-25T04:26:02;15.17;;;4.00;;
9836;SDS011;4957;51.412;6.724;2023-04-25T04:28:28;13.43;;;3.60;;
9836;SDS011;4957;51.412;6.724;2023-04-25T04:30:54;10.90;;;3.80;;
9836;SDS011;4957;51.412;6.724;2023-04-25T04:33:20;9.63;;;3.50;;
9836;SDS011;4957;51.412;6.724;2023-04-25T04:35:46;11.40;;;3.53;;
9836;SDS011;4957;51.412;6.724;2023-04-25T04:38:12;9.63;;;3.10;;
9836;SDS011;4957;51.412;6.724;2023-04-25T04:40:40;14.63;;;4.37;;
9836;SDS011;4957;51.412;6.724;2023-04-25T04:43:08;11.13;;;4.03;;
9836;SDS011;4957;51.412;6.724;2023-04-25T04:45:36;13.77;;;4.00;;
9836;SDS011;4957;51.412;6.724;2023-04-25T04:48:04;10.20;;;3.70;;
9836;SDS011;4957;51.412;6.724;2023-04-25T04:50:33;9.33;;;3.93;;
9836;SDS011;4957;51.412;6.724;2023-04-25T04:53:00;9.33;;;3.43;;
9836;SDS011;4957;51.412;6.724;2023-04-25T04:55:27;12.30;;;4.20;;
9836;SDS011;4957;51.412;6.724;2023-04-25T04:57:52;11.10;;;3.17;;
9836;SDS011;4957;51.412;6.724;2023-04-25T05:00:18;13.57;;;4.17;;
9836;SDS011;4957;51.412;6.724;2023-04-25T05:02:45;11.63;;;4.03;;
9836;SDS011;4957;51.412;6.724;2023-04-25T05:05:11;14.20;;;3.93;;
9836;SDS011;4957;51.412;6.724;2023-04-25T05:07:37;12.20;;;4.00;;
9836;SDS011;4957;51.412;6.724;2023-04-25T05:10:02;10.17;;;3.60;;
9836;SDS011;4957;51.412;6.724;2023-04-25T05:12:28;9.50;;;3.40;;
9836;SDS011;4957;51.412;6.724;2023-04-25T05:14:55;10.17;;;3.50;;
9836;SDS011;4957;51.412;6.724;2023-04-25T05:17:21;9.43;;;3.73;;
9836;SDS011;4957;51.412;6.724;2023-04-25T05:19:46;12.33;;;4.23;;
9836;SDS011;4957;51.412;6.724;2023-04-25T05:22:12;13.53;;;4.40;;
9836;SDS011;4957;51.412;6.724;2023-04-25T05:24:38;11.27;;;4.10;;
9836;SDS011;4957;51.412;6.724;2023-04-25T05:27:04;10.93;;;4.67;;
9836;SDS011;4957;51.412;6.724;2023-04-25T05:29:30;15.10;;;4.70;;
9836;SDS011;4957;51.412;6.724;2023-04-25T05:31:56;14.77;;;4.33;;
9836;SDS011;4957;51.412;6.724;2023-04-25T05:34:21;14.47;;;3.83;;
9836;SDS011;4957;51.412;6.724;2023-04-25T05:36:47;10.40;;;3.93;;
9836;SDS011;4957;51.412;6.724;2023-04-25T05:39:14;9.60;;;4.00;;
9836;SDS011;4957;51.412;6.724;2023-04-25T05:41:41;9.63;;;3.80;;
9836;SDS011;4957;51.412;6.724;2023-04-25T05:44:07;12.60;;;4.30;;
9836;SDS011;4957;51.412;6.724;2023-04-25T05:46:33;12.27;;;3.93;;
9836;SDS011;4957;51.412;6.724;2023-04-25T05:48:58;11.70;;;3.50;;
9836;SDS011;4957;51.412;6.724;2023-04-25T05:51:24;14.53;;;3.90;;
9836;SDS011;4957;51.412;6.724;2023-04-25T05:53:50;11.93;;;4.00;;
9836;SDS011;4957;51.412;6.724;2023-04-25T05:56:16;10.67;;;4.20;;
9836;SDS011;4957;51.412;6.724;2023-04-25T05:58:42;16.03;;;4.27;;
9836;SDS011;4957;51.412;6.724;2023-04-25T06:01:08;8.70;;;3.10;;
9836;SDS011;4957;51.412;6.724;2023-04-25T06:03:34;14.70;;;4.50;;
9836;SDS011;4957;51.412;6.724;2023-04-25T06:06:00;11.23;;;3.97;;
9836;SDS011;4957;51.412;6.724;2023-04-25T06:08:25;13.57;;;4.47;;
9836;SDS011;4957;51.412;6.724;2023-04-25T06:10:51;7.50;;;2.93;;
9836;SDS011;4957;51.412;6.724;2023-04-25T06:13:17;11.93;;;3.93;;
9836;SDS011;4957;51.412;6.724;2023-04-25T06:15:42;10.47;;;3.63;;
9836;SDS011;4957;51.412;6.724;2023-04-25T06:18:08;12.90;;;3.57;;
9836;SDS011;4957;51.412;6.724;2023-04-25T06:20:34;11.20;;;3.50;;
9836;SDS011;4957;51.412;6.724;2023-04-25T06:22:59;11.47;;;3.83;;
9836;SDS011;4957;51.412;6.724;2023-04-25T06:25:25;13.40;;;3.67;;
9836;SDS011;4957;51.412;6.724;2023-04-25T06:27:51;8.07;;;3.07;;
9836;SDS011;4957;51.412;6.724;2023-04-25T06:30:16;12.73;;;3.53;;
9836;SDS011;4957;51.412;6.724;2023-04-25T06:32:47;7.47;;;3.27;;
9836;SDS011;4957;51.412;6.724;2023-04-25T06:35:12;13.13;;;3.20;;
9836;SDS011;4957;51.412;6.724;2023-04-25T06:37:38;13.23;;;3.57;;
9836;SDS011;4957;51.412;6.724;2023-04-25T06:40:04;10.73;;;2.87;;
9836;SDS011;4957;51.412;6.724;2023-04-25T06:42:30;7.57;;;3.13;;
9836;SDS011;4957;51.412;6.724;2023-04-25T06:44:56;9.77;;;3.50;;
9836;SDS011;4957;51.412;6.724;2023-04-25T06:47:22;10.70;;;4.00;;
9836;SDS011;4957;51.412;6.724;2023-04-25T06:49:47;9.57;;;4.07;;
9836;SDS011;4957;51.412;6.724;2023-04-25T06:52:13;8.13;;;4.40;;
9836;SDS011;4957;51.412;6.724;2023-04-25T06:54:39;13.17;;;4.33;;
9836;SDS011;4957;51.412;6.724;2023-04-25T06:57:04;10.07;;;3.33;;
9836;SDS011;4957;51.412;6.724;2023-04-25T06:59:30;10.07;;;3.07;;
9836;SDS011;4957;51.412;6.724;2023-04-25T07:01:56;13.20;;;3.07;;
9836;SDS011;4957;51.412;6.724;2023-04-25T07:04:21;11.27;;;3.77;;
9836;SDS011;4957;51.412;6.724;2023-04-25T07:06:47;8.77;;;3.33;;
9836;SDS011;4957;51.412;6.724;2023-04-25T07:09:14;9.10;;;2.73;;
9836;SDS011;4957;51.412;6.724;2023-04-25T07:11:39;9.50;;;3.20;;
9836;SDS011;4957;51.412;6.724;2023-04-25T07:14:05;12.63;;;3.60;;
9836;SDS011;4957;51.412;6.724;2023-04-25T07:16:31;11.77;;;3.40;;
9836;SDS011;4957;51.412;6.724;2023-04-25T07:18:56;12.53;;;3.30;;
9836;SDS011;4957;51.412;6.724;2023-04-25T07:21:22;8.37;;;2.87;;
9836;SDS011;4957;51.412;6.724;2023-04-25T07:23:48;8.13;;;2.77;;
9836;SDS011;4957;51.412;6.724;2023-04-25T07:26:13;6.40;;;2.37;;
9836;SDS011;4957;51.412;6.724;2023-04-25T07:28:39;10.23;;;2.40;;
9836;SDS011;4957;51.412;6.724;2023-04-25T07:31:04;6.80;;;2.77;;
9836;SDS011;4957;51.412;6.724;2023-04-25T07:33:30;8.27;;;2.63;;
9836;SDS011;4957;51.412;6.724;2023-04-25T07:35:56;6.63;;;2.27;;
9836;SDS011;4957;51.412;6.724;2023-04-25T07:38:22;8.87;;;2.83;;
9836;SDS011;4957;51.412;6.724;2023-04-25T07:40:50;7.33;;;2.37;;
9836;SDS011;4957;51.412;6.724;2023-04-25T07:43:16;12.53;;;2.50;;
9836;SDS011;4957;51.412;6.724;2023-04-25T07:45:42;8.67;;;2.37;;
9836;SDS011;4957;51.412;6.724;2023-04-25T07:48:08;8.67;;;2.53;;
9836;SDS011;4957;51.412;6.724;2023-04-25T07:50:35;7.40;;;2.63;;
9836;SDS011;4957;51.412;6.724;2023-04-25T07:53:00;11.97;;;2.60;;
9836;SDS011;4957;51.412;6.724;2023-04-25T07:55:27;7.80;;;2.50;;
9836;SDS011;4957;51.412;6.724;2023-04-25T07:57:53;6.23;;;2.60;;
9836;SDS011;4957;51.412;6.724;2023-04-25T08:00:19;7.00;;;2.47;;
9836;SDS011;4957;51.412;6.724;2023-04-25T08:02:44;5.93;;;2.17;;
9836;SDS011;4957;51.412;6.724;2023-04-25T08:05:10;8.37;;;2.10;;
9836;SDS011;4957;51.412;6.724;2023-04-25T08:07:39;10.50;;;2.77;;
9836;SDS011;4957;51.412;6.724;2023-04-25T08:10:07;8.70;;;2.57;;
9836;SDS011;4957;51.412;6.724;2023-04-25T08:12:33;7.90;;;2.20;;
9836;SDS011;4957;51.412;6.724;2023-04-25T08:14:59;13.70;;;2.90;;
9836;SDS011;4957;51.412;6.724;2023-04-25T08:17:24;6.67;;;1.70;;
9836;SDS011;4957;51.412;6.724;2023-04-25T08:19:50;10.33;;;1.90;;
9836;SDS011;4957;51.412;6.724;2023-04-25T08:22:16;5.00;;;1.63;;
9836;SDS011;4957;51.412;6.724;2023-04-25T08:24:41;8.60;;;2.10;;
9836;SDS011;4957;51.412;6.724;2023-04-25T08:27:07;3.77;;;1.87;;
9836;SDS011;4957;51.412;6.724;2023-04-25T08:29:33;6.33;;;2.00;;
9836;SDS011;4957;51.412;6.724;2023-04-25T08:31:59;10.00;;;2.23;;
9836;SDS011;4957;51.412;6.724;2023-04-25T08:34:26;7.30;;;2.30;;
9836;SDS011;4957;51.412;6.724;2023-04-25T08:36:52;4.83;;;1.97;;
9836;SDS011;4957;51.412;6.724;2023-04-25T08:39:17;4.80;;;1.70;;
9836;SDS011;4957;51.412;6.724;2023-04-25T08:41:43;5.77;;;1.50;;
9836;SDS011;4957;51.412;6.724;2023-04-25T08:44:10;6.70;;;1.87;;
9836;SDS011;4957;51.412;6.724;2023-04-25T08:46:40;6.70;;;1.80;;
9836;SDS011;4957;51.412;6.724;2023-04-25T08:49:06;5.97;;;1.93;;
9836;SDS011;4957;51.412;6.724;2023-04-25T08:51:34;8.63;;;1.97;;
9836;SDS011;4957;51.412;6.724;2023-04-25T08:54:13;8.90;;;1.80;;
9836;SDS011;4957;51.412;6.724;2023-04-25T08:56:44;6.47;;;1.80;;
9836;SDS011;4957;51.412;6.724;2023-04-25T08:59:11;5.70;;;1.70;;
9836;SDS011;4957;51.412;6.724;2023-04-25T09:01:37;5.90;;;1.60;;
9836;SDS011;4957;51.412;6.724;2023-04-25T09:04:03;5.43;;;1.60;;
9836;SDS011;4957;51.412;6.724;2023-04-25T09:06:29;7.50;;;2.07;;
9836;SDS011;4957;51.412;6.724;2023-04-25T09:09:05;4.90;;;1.30;;
9836;SDS011;4957;51.412;6.724;2023-04-25T09:11:33;4.63;;;1.73;;
9836;SDS011;4957;51.412;6.724;2023-04-25T09:14:16;4.20;;;1.47;;
9836;SDS011;4957;51.412;6.724;2023-04-25T09:19:22;6.77;;;1.23;;
9836;SDS011;4957;51.412;6.724;2023-04-25T09:21:50;6.97;;;1.23;;
9836;SDS011;4957;51.412;6.724;2023-04-25T09:24:19;7.57;;;1.53;;
9836;SDS011;4957;51.412;6.724;2023-04-25T09:27:07;7.00;;;1.20;;
9836;SDS011;4957;51.412;6.724;2023-04-25T09:29:38;3.73;;;1.10;;
9836;SDS011;4957;51.412;6.724;2023-04-25T09:32:13;4.07;;;1.30;;
9836;SDS011;4957;51.412;6.724;2023-04-25T09:34:52;5.53;;;1.50;;
9836;SDS011;4957;51.412;6.724;2023-04-25T09:37:22;4.40;;;1.33;;
9836;SDS011;4957;51.412;6.724;2023-04-25T09:39:53;4.13;;;1.50;;
9836;SDS011;4957;51.412;6.724;2023-04-25T09:42:24;4.13;;;1.23;;
9836;SDS011;4957;51.412;6.724;2023-04-25T09:44:52;6.40;;;1.17;;
9836;SDS011;4957;51.412;6.724;2023-04-25T09:47:19;6.73;;;1.30;;
9836;SDS011;4957;51.412;6.724;2023-04-25T09:49:47;3.60;;;1.60;;
9836;SDS011;4957;51.412;6.724;2023-04-25T09:52:14;4.40;;;1.40;;
9836;SDS011;4957;51.412;6.724;2023-04-25T09:54:44;5.77;;;1.60;;
9836;SDS011;4957;51.412;6.724;2023-04-25T09:57:11;7.00;;;1.50;;
9836;SDS011;4957;51.412;6.724;2023-04-25T09:59:42;4.17;;;1.20;;
9836;SDS011;4957;51.412;6.724;2023-04-25T10:02:13;3.33;;;1.20;;
9836;SDS011;4957;51.412;6.724;2023-04-25T10:04:41;4.97;;;1.60;;
9836;SDS011;4957;51.412;6.724;2023-04-25T10:07:08;4.80;;;1.07;;
9836;SDS011;4957;51.412;6.724;2023-04-25T10:09:36;3.47;;;1.03;;
9836;SDS011;4957;51.412;6.724;2023-04-25T10:12:04;3.73;;;1.27;;
9836;SDS011;4957;51.412;6.724;2023-04-25T10:14:31;3.73;;;1.07;;
9836;SDS011;4957;51.412;6.724;2023-04-25T10:16:57;7.90;;;1.90;;
9836;SDS011;4957;51.412;6.724;2023-04-25T10:19:24;10.67;;;1.27;;
9836;SDS011;4957;51.412;6.724;2023-04-25T10:21:56;4.47;;;1.50;;
9836;SDS011;4957;51.412;6.724;2023-04-25T10:24:29;5.83;;;1.77;;
9836;SDS011;4957;51.412;6.724;2023-04-25T10:26:56;3.33;;;1.30;;
9836;SDS011;4957;51.412;6.724;2023-04-25T10:29:26;5.80;;;2.47;;
9836;SDS011;4957;51.412;6.724;2023-04-25T10:31:53;5.73;;;2.13;;
9836;SDS011;4957;51.412;6.724;2023-04-25T10:34:19;3.70;;;1.63;;
9836;SDS011;4957;51.412;6.724;2023-04-25T10:36:49;9.07;;;1.53;;
9836;SDS011;4957;51.412;6.724;2023-04-25T10:39:23;3.93;;;0.90;;
9836;SDS011;4957;51.412;6.724;2023-04-25T10:42:02;4.60;;;1.10;;
9836;SDS011;4957;51.412;6.724;2023-04-25T10:44:31;4.20;;;1.40;;
9836;SDS011;4957;51.412;6.724;2023-04-25T10:46:57;3.07;;;1.10;;
9836;SDS011;4957;51.412;6.724;2023-04-25T10:49:28;3.40;;;1.13;;
9836;SDS011;4957;51.412;6.724;2023-04-25T10:52:17;1.73;;;0.90;;
9836;SDS011;4957;51.412;6.724;2023-04-25T10:54:42;4.93;;;1.63;;
9836;SDS011;4957;51.412;6.724;2023-04-25T11:00:12;4.07;;;1.20;;
9836;SDS011;4957;51.412;6.724;2023-04-25T11:05:10;3.93;;;1.40;;
9836;SDS011;4957;51.412;6.724;2023-04-25T11:08:01;5.80;;;1.93;;
9836;SDS011;4957;51.412;6.724;2023-04-25T11:10:31;8.63;;;2.97;;
9836;SDS011;4957;51.412;6.724;2023-04-25T11:13:00;9.23;;;3.73;;
9836;SDS011;4957;51.412;6.724;2023-04-25T11:15:27;12.20;;;3.40;;
9836;SDS011;4957;51.412;6.724;2023-04-25T11:17:53;5.43;;;2.40;;
9836;SDS011;4957;51.412;6.724;2023-04-25T11:20:20;8.80;;;2.63;;
9836;SDS011;4957;51.412;6.724;2023-04-25T11:22:47;7.07;;;2.83;;
9836;SDS011;4957;51.412;6.724;2023-04-25T11:25:13;14.50;;;5.13;;
9836;SDS011;4957;51.412;6.724;2023-04-25T11:30:19;13.27;;;5.07;;
9836;SDS011;4957;51.412;6.724;2023-04-25T11:32:46;8.20;;;2.70;;
9836;SDS011;4957;51.412;6.724;2023-04-25T11:35:12;9.90;;;2.50;;
9836;SDS011;4957;51.412;6.724;2023-04-25T11:37:39;4.33;;;1.70;;
9836;SDS011;4957;51.412;6.724;2023-04-25T11:40:05;5.47;;;1.60;;
9836;SDS011;4957;51.412;6.724;2023-04-25T11:42:33;5.23;;;1.57;;
9836;SDS011;4957;51.412;6.724;2023-04-25T11:44:59;3.57;;;1.53;;
9836;SDS011;4957;51.412;6.724;2023-04-25T11:47:32;4.83;;;1.90;;
9836;SDS011;4957;51.412;6.724;2023-04-25T11:49:59;6.07;;;1.53;;
9836;SDS011;4957;51.412;6.724;2023-04-25T11:52:41;3.03;;;1.80;;
9836;SDS011;4957;51.412;6.724;2023-04-25T11:55:08;4.17;;;1.53;;
9836;SDS011;4957;51.412;6.724;2023-04-25T11:57:39;4.20;;;1.70;;
9836;SDS011;4957;51.412;6.724;2023-04-25T12:00:15;7.80;;;1.60;;
9836;SDS011;4957;51.412;6.724;2023-04-25T12:02:43;5.07;;;1.70;;
9836;SDS011;4957;51.412;6.724;2023-04-25T12:05:12;5.10;;;1.93;;
9836;SDS011;4957;51.412;6.724;2023-04-25T12:07:40;3.87;;;1.60;;
9836;SDS011;4957;51.412;6.724;2023-04-25T12:10:13;6.20;;;1.80;;
9836;SDS011;4957;51.412;6.724;2023-04-25T12:12:44;4.47;;;1.50;;
9836;SDS011;4957;51.412;6.724;2023-04-25T12:15:11;4.23;;;1.60;;
9836;SDS011;4957;51.412;6.724;2023-04-25T12:17:49;4.47;;;1.50;;
9836;SDS011;4957;51.412;6.724;2023-04-25T12:20:20;4.37;;;1.87;;
9836;SDS011;4957;51.412;6.724;2023-04-25T12:22:49;3.37;;;1.70;;
9836;SDS011;4957;51.412;6.724;2023-04-25T12:30:56;3.77;;;1.30;;
9836;SDS011;4957;51.412;6.724;2023-04-25T12:35:59;5.37;;;1.33;;
9836;SDS011;4957;51.412;6.724;2023-04-25T12:38:29;4.33;;;1.50;;
9836;SDS011;4957;51.412;6.724;2023-04-25T12:40:59;3.63;;;1.33;;
9836;SDS011;4957;51.412;6.724;2023-04-25T12:43:25;4.20;;;1.30;;
9836;SDS011;4957;51.412;6.724;2023-04-25T12:45:51;4.93;;;1.50;;
9836;SDS011;4957;51.412;6.724;2023-04-25T12:48:18;3.47;;;1.30;;
9836;SDS011;4957;51.412;6.724;2023-04-25T12:50:45;5.60;;;1.70;;
9836;SDS011;4957;51.412;6.724;2023-04-25T12:53:17;4.40;;;1.30;;
9836;SDS011;4957;51.412;6.724;2023-04-25T12:55:44;3.70;;;1.40;;
9836;SDS011;4957;51.412;6.724;2023-04-25T12:58:12;6.53;;;1.50;;
9836;SDS011;4957;51.412;6.724;2023-04-25T13:00:41;3.30;;;1.43;;
9836;SDS011;4957;51.412;6.724;2023-04-25T13:03:07;3.57;;;1.40;;
9836;SDS011;4957;51.412;6.724;2023-04-25T13:05:34;5.07;;;1.57;;
9836;SDS011;4957;51.412;6.724;2023-04-25T13:07:59;3.20;;;0.90;;
9836;SDS011;4957;51.412;6.724;2023-04-25T13:10:25;3.77;;;1.30;;
9836;SDS011;4957;51.412;6.724;2023-04-25T13:12:51;6.07;;;1.30;;
9836;SDS011;4957;51.412;6.724;2023-04-25T13:15:16;5.53;;;1.50;;
9836;SDS011;4957;51.412;6.724;2023-04-25T13:17:42;3.10;;;1.30;;
9836;SDS011;4957;51.412;6.724;2023-04-25T13:20:08;8.87;;;1.70;;
9836;SDS011;4957;51.412;6.724;2023-04-25T13:22:35;4.77;;;1.50;;
9836;SDS011;4957;51.412;6.724;2023-04-25T13:25:02;6.30;;;1.57;;
9836;SDS011;4957;51.412;6.724;2023-04-25T13:27:29;8.27;;;1.60;;
9836;SDS011;4957;51.412;6.724;2023-04-25T13:29:55;5.73;;;1.47;;
9836;SDS011;4957;51.412;6.724;2023-04-25T13:32:21;5.87;;;1.70;;
9836;SDS011;4957;51.412;6.724;2023-04-25T13:34:46;5.37;;;1.50;;
9836;SDS011;4957;51.412;6.724;2023-04-25T13:37:12;5.33;;;1.60;;
9836;SDS011;4957;51.412;6.724;2023-04-25T13:39:38;3.23;;;1.50;;
9836;SDS011;4957;51.412;6.724;2023-04-25T13:42:03;3.83;;;1.00;;
9836;SDS011;4957;51.412;6.724;2023-04-25T13:44:29;4.17;;;1.40;;
9836;SDS011;4957;51.412;6.724;2023-04-25T13:46:55;6.73;;;1.53;;
9836;SDS011;4957;51.412;6.724;2023-04-25T13:49:20;1.47;;;1.07;;
9836;SDS011;4957;51.412;6.724;2023-04-25T13:51:48;2.63;;;1.40;;
9836;SDS011;4957;51.412;6.724;2023-04-25T13:54:13;4.63;;;1.00;;
9836;SDS011;4957;51.412;6.724;2023-04-25T13:56:39;3.30;;;1.10;;
9836;SDS011;4957;51.412;6.724;2023-04-25T13:59:07;8.07;;;1.40;;
9836;SDS011;4957;51.412;6.724;2023-04-25T14:01:32;5.93;;;1.30;;
9836;SDS011;4957;51.412;6.724;2023-04-25T14:04:00;2.20;;;0.87;;
9836;SDS011;4957;51.412;6.724;2023-04-25T14:06:31;4.90;;;1.40;;
9836;SDS011;4957;51.412;6.724;2023-04-25T14:08:57;6.27;;;1.40;;
9836;SDS011;4957;51.412;6.724;2023-04-25T14:11:25;1.87;;;1.00;;
9836;SDS011;4957;51.412;6.724;2023-04-25T14:13:51;1.70;;;0.93;;
9836;SDS011;4957;51.412;6.724;2023-04-25T14:16:16;2.50;;;1.30;;
9836;SDS011;4957;51.412;6.724;2023-04-25T14:18:42;2.87;;;1.50;;
9836;SDS011;4957;51.412;6.724;2023-04-25T14:21:08;1.87;;;1.10;;
9836;SDS011;4957;51.412;6.724;2023-04-25T14:23:34;7.53;;;1.13;;
9836;SDS011;4957;51.412;6.724;2023-04-25T14:26:00;2.37;;;1.20;;
9836;SDS011;4957;51.412;6.724;2023-04-25T14:28:26;3.07;;;1.10;;
9836;SDS011;4957;51.412;6.724;2023-04-25T14:30:52;3.37;;;0.93;;
9836;SDS011;4957;51.412;6.724;2023-04-25T14:33:18;4.80;;;1.00;;
9836;SDS011;4957;51.412;6.724;2023-04-25T14:35:43;4.17;;;1.13;;
9836;SDS011;4957;51.412;6.724;2023-04-25T14:38:09;3.33;;;1.50;;
9836;SDS011;4957;51.412;6.724;2023-04-25T14:40:35;1.30;;;0.90;;
9836;SDS011;4957;51.412;6.724;2023-04-25T14:43:01;3.23;;;1.70;;
9836;SDS011;4957;51.412;6.724;2023-04-25T14:45:27;5.60;;;2.30;;
9836;SDS011;4957;51.412;6.724;2023-04-25T14:47:53;5.67;;;2.50;;
9836;SDS011;4957;51.412;6.724;2023-04-25T14:50:19;3.07;;;1.53;;
9836;SDS011;4957;51.412;6.724;2023-04-25T14:52:44;3.43;;;1.30;;
9836;SDS011;4957;51.412;6.724;2023-04-25T14:55:10;5.17;;;1.60;;
9836;SDS011;4957;51.412;6.724;2023-04-25T14:57:36;2.43;;;1.27;;
9836;SDS011;4957;51.412;6.724;2023-04-25T15:00:04;3.73;;;1.30;;
9836;SDS011;4957;51.412;6.724;2023-04-25T15:02:34;3.87;;;1.47;;
9836;SDS011;4957;51.412;6.724;2023-04-25T15:05:01;6.47;;;1.43;;
9836;SDS011;4957;51.412;6.724;2023-04-25T15:07:28;3.70;;;1.37;;
9836;SDS011;4957;51.412;6.724;2023-04-25T15:09:54;5.33;;;1.50;;
9836;SDS011;4957;51.412;6.724;2023-04-25T15:12:21;2.97;;;1.20;;
9836;SDS011;4957;51.412;6.724;2023-04-25T15:14:47;6.07;;;1.30;;
9836;SDS011;4957;51.412;6.724;2023-04-25T15:17:12;2.77;;;0.90;;
9836;SDS011;4957;51.412;6.724;2023-04-25T15:19:39;4.40;;;1.00;;
9836;SDS011;4957;51.412;6.724;2023-04-25T15:22:05;3.23;;;1.17;;
9836;SDS011;4957;51.412;6.724;2023-04-25T15:24:31;2.43;;;0.90;;
9836;SDS011;4957;51.412;6.724;2023-04-25T15:26:57;2.53;;;0.77;;